Time;durP1;ratioP1;P1;durP2;ratioP2;P2;SDS_P1;SDS_P2;PMS_P1;PMS_P2;Temp;Humidity;BMP_temperature;BMP_pressure;BME280_temperature;BME280_humidity;BME280_pressure;Samples;Min_cycle;Max_cycle;Signal;HPM_P1;HPM_P2
2022/08/11 00:00:08;;;;;;;0.73;0.73;;;;;;;16.52;70.72;101166.72;5010361;28;20717;-72
2022/08/11 00:02:40;;;;;;;0.00;0.00;;;;;;;16.52;71.14;101166.72;5010689;28;20622;-72
2022/08/11 00:05:09;;;;;;;0.00;0.00;;;;;;;16.45;71.02;101163.69;5010799;28;20271;-72
2022/08/11 00:07:50;;;;;;;0.00;0.00;;;;;;;16.46;71.42;101159.78;5010605;28;20195;-72
2022/08/11 00:10:19;;;;;;;0.00;0.00;;;;;;;16.42;70.91;101169.88;5009119;28;20275;-72
2022/08/11 00:12:55;;;;;;;0.00;0.00;;;;;;;16.40;70.62;101163.06;5010602;28;20663;-72
2022/08/11 00:15:21;;;;;;;0.67;0.67;;;;;;;16.45;70.87;101160.91;5010753;28;20163;-72
2022/08/11 00:17:46;;;;;;;0.00;0.00;;;;;;;16.51;70.45;101159.59;5010482;28;20172;-72
2022/08/11 00:20:16;;;;;;;0.00;0.00;;;;;;;16.56;70.35;101161.34;5009967;28;20172;-72
2022/08/11 00:22:43;;;;;;;0.00;0.00;;;;;;;16.62;70.58;101155.28;5009737;28;20204;-72
2022/08/11 00:25:20;;;;;;;0.00;0.00;;;;;;;16.65;70.14;101160.16;5009135;28;20542;-72
2022/08/11 00:27:47;;;;;;;0.23;0.23;;;;;;;16.68;70.19;101149.63;5010206;28;20184;-72
2022/08/11 00:30:13;;;;;;;0.00;0.00;;;;;;;16.71;70.49;101163.56;5008734;28;20658;-72
2022/08/11 00:32:45;;;;;;;0.00;0.00;;;;;;;16.73;70.33;101152.19;5010748;28;20241;-72
2022/08/11 00:35:16;;;;;;;0.00;0.00;;;;;;;16.74;70.25;101156.56;5014148;28;20267;-72
2022/08/11 00:37:49;;;;;;;0.00;0.00;;;;;;;16.77;70.66;101158.63;5012428;28;20231;-72
2022/08/11 00:40:35;;;;;;;0.00;0.00;;;;;;;16.82;70.58;101163.97;5013694;28;20175;-73
2022/08/11 00:43:15;;;;;;;0.00;0.00;;;;;;;16.85;70.39;101166.06;5013856;28;20212;-72
2022/08/11 00:46:07;;;;;;;0.00;0.00;;;;;;;16.90;70.49;101166.66;5014061;28;20266;-72
2022/08/11 00:48:44;;;;;;;0.40;0.40;;;;;;;16.94;69.68;101161.28;5008202;28;20216;-72
2022/08/11 00:51:09;;;;;;;0.00;0.00;;;;;;;16.96;69.59;101156.22;5013967;28;20217;-72
2022/08/11 00:53:59;;;;;;;0.00;0.00;;;;;;;16.95;69.61;101160.94;5013767;28;20632;-72
2022/08/11 00:57:01;;;;;;;0.00;0.00;;;;;;;16.88;69.18;101166.19;5013873;28;20165;-72
2022/08/11 00:59:59;;;;;;;0.00;0.00;;;;;;;16.79;69.68;101164.66;5013551;28;20196;-72
2022/08/11 01:02:46;;;;;;;0.00;0.00;;;;;;;16.80;69.99;101160.75;5013830;28;20258;-73
2022/08/11 01:05:37;;;;;;;0.00;0.00;;;;;;;16.83;69.73;101162.81;5013597;28;20267;-73
2022/08/11 01:08:24;;;;;;;0.00;0.00;;;;;;;16.84;69.90;101158.91;5011977;28;20191;-72
2022/08/11 01:11:27;;;;;;;0.00;0.00;;;;;;;16.87;69.47;101164.56;5013469;28;20228;-72
2022/08/11 01:14:02;;;;;;;0.00;0.00;;;;;;;16.91;69.23;101168.25;5012021;28;20540;-73
2022/08/11 01:16:50;;;;;;;0.00;0.00;;;;;;;16.90;68.79;101174.13;5012187;28;20525;-72
2022/08/11 01:19:30;;;;;;;0.00;0.00;;;;;;;16.74;69.57;101178.63;5013051;28;20169;-72
2022/08/11 01:22:17;;;;;;;0.00;0.00;;;;;;;16.53;69.80;101175.81;5011923;28;20218;-72
2022/08/11 01:25:00;;;;;;;0.00;0.00;;;;;;;16.42;70.74;101178.13;5013561;28;20173;-72
2022/08/11 01:28:00;;;;;;;0.00;0.00;;;;;;;16.33;71.33;101180.94;5013156;28;20200;-73
2022/08/11 01:30:47;;;;;;;0.00;0.00;;;;;;;16.38;71.74;101174.44;5012775;28;20176;-72
2022/08/11 01:34:08;;;;;;;0.67;0.67;;;;;;;16.41;71.11;101181.22;5011675;28;20275;-72
2022/08/11 01:37:12;;;;;;;0.00;0.00;;;;;;;16.35;71.29;101183.38;5013326;28;20552;-73
2022/08/11 01:40:01;;;;;;;0.00;0.00;;;;;;;16.23;71.27;101175.00;5016138;28;20540;-72
2022/08/11 01:45:54;;;;;;;0.00;0.00;;;;;;;15.84;72.90;101176.91;5012599;28;20234;-72
2022/08/11 01:48:27;;;;;;;0.00;0.00;;;;;;;15.72;73.55;101182.31;5011879;28;20515;-72
2022/08/11 01:51:00;;;;;;;0.00;0.00;;;;;;;15.42;74.77;101178.59;5011821;28;20187;-72
2022/08/11 01:53:49;;;;;;;0.00;0.00;;;;;;;15.28;76.26;101177.97;5012883;28;20310;-72
2022/08/11 01:56:23;;;;;;;0.00;0.00;;;;;;;15.21;76.65;101180.41;5012975;28;20172;-72
2022/08/11 01:59:10;;;;;;;0.00;0.00;;;;;;;15.14;77.32;101186.38;5010967;28;20180;-72
2022/08/11 02:02:12;;;;;;;0.00;0.00;;;;;;;15.11;77.76;101176.84;5044150;28;20208;-72
2022/08/11 02:04:44;;;;;;;0.00;0.00;;;;;;;15.17;77.84;101178.28;5012414;28;20180;-72
2022/08/11 02:07:30;;;;;;;0.00;0.00;;;;;;;15.28;77.32;101180.72;5012349;28;20227;-73
2022/08/11 02:13:39;;;;;;;0.00;0.00;;;;;;;15.31;76.06;101186.38;5010867;28;20541;-72
2022/08/11 02:16:14;;;;;;;0.00;0.00;;;;;;;15.23;76.00;101180.88;5010971;28;20518;-72
2022/08/11 02:25:01;;;;;;;0.30;0.30;;;;;;;15.04;76.77;101176.50;5012513;28;20223;-73
2022/08/11 02:27:40;;;;;;;0.00;0.00;;;;;;;14.96;77.60;101176.50;5010683;28;20255;-72
2022/08/11 02:30:19;;;;;;;0.00;0.00;;;;;;;14.85;78.60;101185.06;5012120;28;20159;-72
2022/08/11 02:35:50;;;;;;;0.00;0.00;;;;;;;14.88;78.33;101180.84;5011765;28;20236;-73
2022/08/11 02:38:23;;;;;;;0.00;0.00;;;;;;;14.80;78.76;101176.97;5010050;28;20191;-73
2022/08/11 02:42:21;;;;;;;0.00;0.00;;;;;;;14.78;79.45;101182.00;5011803;28;20625;-73
2022/08/11 02:44:14;;;;;;;0.00;0.00;;;;;;;14.66;79.64;101173.56;5011561;28;20224;-73
2022/08/11 02:47:08;;;;;;;0.00;0.00;;;;;;;14.63;79.80;101170.66;5011690;28;20175;-73
2022/08/11 02:49:53;;;;;;;0.00;0.00;;;;;;;14.59;80.14;101179.53;5009650;28;20208;-72
2022/08/11 02:52:39;;;;;;;0.00;0.00;;;;;;;14.55;80.48;101169.50;5011666;28;20160;-72
2022/08/11 02:55:40;;;;;;;0.00;0.00;;;;;;;14.50;80.71;101169.66;5011835;28;20171;-73
2022/08/11 02:58:27;;;;;;;0.00;0.00;;;;;;;14.44;80.62;101170.91;5003678;28;20283;-72
2022/08/11 03:01:02;;;;;;;0.40;0.40;;;;;;;14.47;80.82;101176.59;5011342;28;20176;-72
2022/08/11 03:03:47;;;;;;;0.00;0.00;;;;;;;14.45;80.74;101181.59;5010175;28;20164;-72
2022/08/11 03:07:00;;;;;;;0.00;0.00;;;;;;;14.47;80.85;101173.03;5011505;28;20578;-72
2022/08/11 03:09:45;;;;;;;0.00;0.00;;;;;;;14.38;80.92;101175.72;5002047;28;20199;-72
2022/08/11 03:18:18;;;;;;;0.00;0.00;;;;;;;14.07;82.10;101177.72;4994752;28;20267;-73
2022/08/11 03:21:11;;;;;;;0.00;0.00;;;;;;;13.97;82.54;101170.56;5011086;28;20181;-72
2022/08/11 03:24:04;;;;;;;0.00;0.00;;;;;;;13.99;83.18;101171.84;5011042;28;20207;-72
2022/08/11 03:26:46;;;;;;;0.00;0.00;;;;;;;14.06;83.46;101179.66;5011017;28;20180;-72
2022/08/11 03:29:30;;;;;;;0.00;0.00;;;;;;;14.10;83.38;101177.88;5010634;28;20195;-72
2022/08/11 03:32:06;;;;;;;0.00;0.00;;;;;;;14.10;83.22;101186.13;5011105;28;20555;-72
2022/08/11 03:34:36;;;;;;;0.00;0.00;;;;;;;14.05;83.18;101182.72;5009687;28;20168;-73
2022/08/11 03:40:12;;;;;;;0.00;0.00;;;;;;;13.96;83.68;101183.47;5010870;28;20183;-72
2022/08/11 03:43:06;;;;;;;0.00;0.00;;;;;;;13.99;83.93;101185.59;5010786;28;20280;-73
2022/08/11 03:45:46;;;;;;;0.00;0.00;;;;;;;13.95;83.40;101186.53;5010824;28;20687;-72
2022/08/11 03:48:26;;;;;;;0.00;0.00;;;;;;;13.83;84.04;101189.88;5010289;28;20182;-72
2022/08/11 03:50:54;;;;;;;0.00;0.00;;;;;;;13.81;83.98;101188.56;5010862;28;20565;-72
2022/08/11 03:53:41;;;;;;;0.00;0.00;;;;;;;13.81;83.50;101196.81;5010794;28;20591;-72
2022/08/11 03:56:21;;;;;;;0.00;0.00;;;;;;;13.80;84.10;101197.94;5010788;28;20195;-72
2022/08/11 03:59:24;;;;;;;0.00;0.00;;;;;;;13.75;84.45;101195.34;5010267;28;20279;-72
2022/08/11 04:02:11;;;;;;;0.00;0.00;;;;;;;13.80;84.66;101195.19;5010666;28;20240;-72
2022/08/11 04:04:54;;;;;;;0.00;0.00;;;;;;;13.78;85.27;101189.22;5009229;28;20207;-72
2022/08/11 04:07:38;;;;;;;0.00;0.00;;;;;;;13.75;85.49;101192.59;5010553;28;20180;-72
2022/08/11 04:10:29;;;;;;;0.00;0.00;;;;;;;13.77;85.97;101191.16;4994702;28;20204;-72
2022/08/11 04:13:26;;;;;;;0.00;0.00;;;;;;;13.78;86.05;101191.94;4995042;28;20688;-72
2022/08/11 04:16:14;;;;;;;0.00;0.00;;;;;;;13.81;85.88;101191.31;4994676;28;20173;-72
2022/08/11 04:19:13;;;;;;;0.00;0.00;;;;;;;13.80;85.74;101207.00;4994298;28;20186;-72
2022/08/11 04:22:06;;;;;;;0.00;0.00;;;;;;;13.78;85.94;101198.25;4994073;28;20383;-72
2022/08/11 04:24:38;;;;;;;0.53;0.53;;;;;;;13.73;85.96;101195.63;4994632;28;20177;-72
2022/08/11 04:27:09;;;;;;;0.00;0.00;;;;;;;13.74;86.73;101185.44;4994182;28;20192;-72
2022/08/11 04:30:04;;;;;;;0.10;0.10;;;;;;;13.78;87.28;101191.94;4994134;28;20177;-72
2022/08/11 04:32:55;;;;;;;0.00;0.00;;;;;;;13.81;87.28;101188.56;4994334;28;20181;-72
2022/08/11 04:35:33;;;;;;;0.00;0.00;;;;;;;13.89;87.37;101191.38;4994441;28;20645;-72
2022/08/11 04:38:24;;;;;;;0.00;0.00;;;;;;;13.95;86.83;101197.53;4994180;28;20467;-72
2022/08/11 04:41:13;;;;;;;0.00;0.00;;;;;;;14.05;86.83;101188.22;4994367;28;20304;-72
2022/08/11 04:44:15;;;;;;;0.00;0.00;;;;;;;14.14;86.91;101200.03;4994308;28;20184;-72
2022/08/11 04:47:05;;;;;;;0.00;0.00;;;;;;;14.21;86.09;101201.22;4994203;28;20238;-72
2022/08/11 05:02:44;;;;;;;0.00;0.00;;;;;;;14.41;84.86;101202.56;4994072;28;20232;-73
2022/08/11 05:05:49;;;;;;;0.00;0.00;;;;;;;14.47;84.40;101208.78;4994095;28;20274;-73
2022/08/11 05:08:42;;;;;;;0.00;0.00;;;;;;;14.56;83.37;101204.91;4993381;28;20482;-73
2022/08/11 05:11:16;;;;;;;0.00;0.00;;;;;;;14.79;83.50;101213.06;4993901;28;20633;-72
2022/08/11 05:37:10;;;;;;;0.00;0.00;;;;;;;15.72;78.66;101226.38;4993282;28;20212;-73
2022/08/11 05:56:46;;;;;;;0.00;0.00;;;;;;;16.53;75.04;101234.56;4992977;28;20173;-76
2022/08/11 05:59:17;;;;;;;0.00;0.00;;;;;;;16.58;74.01;101230.78;5009813;28;20276;-73
2022/08/11 06:01:43;;;;;;;0.00;0.00;;;;;;;16.71;74.26;101234.50;5012452;28;20200;-73
2022/08/11 06:04:16;;;;;;;0.00;0.00;;;;;;;16.78;74.63;101240.28;5012429;28;20180;-73
2022/08/11 06:07:01;;;;;;;0.00;0.00;;;;;;;16.92;73.62;101235.31;5012349;28;20165;-73
2022/08/11 06:09:33;;;;;;;0.00;0.00;;;;;;;17.00;74.32;101239.19;5010783;28;20687;-73
2022/08/11 06:12:02;;;;;;;0.00;0.00;;;;;;;17.06;73.20;101246.13;5012870;28;20168;-74
2022/08/11 06:14:28;;;;;;;0.00;0.00;;;;;;;17.19;71.51;101240.31;5012279;28;20629;-74
2022/08/11 06:16:59;;;;;;;0.00;0.00;;;;;;;17.24;71.42;101242.91;5011992;28;20177;-74
2022/08/11 06:19:32;;;;;;;0.00;0.00;;;;;;;17.30;72.07;101239.94;5010451;28;20647;-74
2022/08/11 06:22:00;;;;;;;0.00;0.00;;;;;;;17.36;72.88;101247.69;5010600;28;20287;-74
2022/08/11 06:24:28;;;;;;;0.00;0.00;;;;;;;17.42;72.57;101242.75;5010252;28;20188;-75
2022/08/11 06:26:54;;;;;;;0.00;0.00;;;;;;;17.46;72.38;101247.25;5011039;28;20188;-75
2022/08/11 06:29:22;;;;;;;0.00;0.00;;;;;;;17.51;72.80;101249.84;5011145;28;20587;-75
2022/08/11 06:31:54;;;;;;;0.00;0.00;;;;;;;17.61;72.12;101245.84;5011811;28;20177;-75
2022/08/11 06:34:59;;;;;;;0.00;0.00;;;;;;;17.69;72.12;101250.50;5011939;28;20659;-75
2022/08/11 06:37:45;;;;;;;0.00;0.00;;;;;;;17.88;69.52;101249.19;5009489;28;20199;-74
2022/08/11 06:41:29;;;;;;;0.00;0.00;;;;;;;18.06;69.43;101251.41;5010289;28;20189;-75
2022/08/11 06:43:44;;;;;;;0.00;0.00;;;;;;;18.14;69.08;101249.72;5011625;28;20190;-75
2022/08/11 06:46:14;;;;;;;0.00;0.00;;;;;;;18.44;68.24;101248.38;5010458;28;20184;-75
2022/08/11 06:48:40;;;;;;;0.27;0.27;;;;;;;18.51;67.36;101252.53;5011149;28;20204;-75
2022/08/11 06:51:11;;;;;;;0.00;0.00;;;;;;;18.66;68.23;101254.63;5011909;28;20297;-75
2022/08/11 06:53:43;;;;;;;0.00;0.00;;;;;;;18.80;66.97;101257.84;5011591;28;20370;-72
2022/08/11 07:02:07;;;;;;;0.50;0.50;;;;;;;18.96;67.31;101261.56;5007986;28;20264;-80
2022/08/11 07:04:42;;;;;;;0.00;0.00;;;;;;;19.07;67.79;101255.53;5002446;28;20220;-74
2022/08/11 07:15:43;;;;;;;0.00;0.00;;;;;;;19.63;64.92;101255.63;5011459;28;20226;-72
2022/08/11 07:29:57;;;;;;;0.00;0.00;;;;;;;20.21;62.32;101268.72;5011035;28;20188;-73
2022/08/11 07:32:28;;;;;;;0.00;0.00;;;;;;;20.30;59.86;101268.56;5011045;28;20203;-73
2022/08/11 07:35:12;;;;;;;0.00;0.00;;;;;;;20.35;60.77;101267.47;5011269;28;20173;-72
2022/08/11 07:37:41;;;;;;;0.00;0.00;;;;;;;20.50;60.34;101269.47;5011048;28;20169;-73
2022/08/11 07:40:08;;;;;;;0.00;0.00;;;;;;;20.54;60.52;101273.16;5010686;28;20175;-72
2022/08/11 07:42:37;;;;;;;0.00;0.00;;;;;;;20.63;60.79;101276.56;5011063;28;20575;-73
2022/08/11 07:53:23;;;;;;;0.00;0.00;;;;;;;21.06;59.71;101270.03;5015290;28;20666;-73
2022/08/11 07:55:49;;;;;;;1.17;1.17;;;;;;;21.25;58.72;101280.41;5014823;28;20196;-73
2022/08/11 08:17:51;;;;;;;0.00;0.00;;;;;;;22.21;55.61;101281.56;5014326;28;20174;-73
2022/08/11 08:20:20;;;;;;;0.00;0.00;;;;;;;22.22;55.54;101277.63;5014145;28;20162;-73
2022/08/11 08:22:57;;;;;;;0.00;0.00;;;;;;;22.32;55.38;101277.00;5012805;28;20700;-73
2022/08/11 08:25:28;;;;;;;0.10;0.10;;;;;;;22.35;56.45;101281.03;5014304;28;20184;-73
2022/08/11 08:27:56;;;;;;;0.00;0.00;;;;;;;22.38;56.29;101278.31;5013993;28;20204;-73
2022/08/11 08:33:10;;;;;;;0.00;0.00;;;;;;;22.80;55.87;101280.19;5014074;28;20216;-73
2022/08/11 08:35:36;;;;;;;0.00;0.00;;;;;;;22.88;54.98;101276.38;5014523;28;20173;-73
2022/08/11 08:38:02;;;;;;;0.13;0.13;;;;;;;23.10;53.99;101278.28;5012556;28;20540;-72
2022/08/11 08:40:28;;;;;;;0.00;0.00;;;;;;;23.22;53.30;101273.66;5013677;28;20180;-73
2022/08/11 08:43:08;;;;;;;0.27;0.27;;;;;;;23.32;52.20;101270.22;5012801;28;20451;-73
2022/08/11 08:45:36;;;;;;;0.27;0.27;;;;;;;23.23;52.29;101267.72;5013971;28;20161;-73
2022/08/11 08:48:07;;;;;;;0.13;0.13;;;;;;;23.36;51.67;101271.06;5013692;28;20648;-72
2022/08/11 08:53:23;;;;;;;0.20;0.20;;;;;;;23.62;51.25;101264.66;5006441;28;20230;-72
2022/08/11 08:55:55;;;;;;;0.00;0.00;;;;;;;23.67;49.83;101267.91;5010285;28;20188;-71
2022/08/11 08:58:23;;;;;;;0.00;0.00;;;;;;;23.67;49.97;101273.50;5007079;28;20191;-71
2022/08/11 09:00:52;;;;;;;0.00;0.00;;;;;;;23.72;50.78;101267.59;5043977;28;20185;-72
2022/08/11 09:03:18;;;;;;;4.17;1.23;;;;;;;23.82;50.61;101266.09;5012350;28;20212;-72
2022/08/11 09:05:45;;;;;;;0.00;0.00;;;;;;;23.98;49.12;101271.44;5013822;28;20169;-72
2022/08/11 09:08:11;;;;;;;0.27;0.27;;;;;;;24.11;49.08;101258.81;5014044;28;20188;-71
2022/08/11 09:10:37;;;;;;;0.20;0.20;;;;;;;24.07;48.02;101260.78;5014708;28;20548;-72
2022/08/11 09:13:05;;;;;;;0.00;0.00;;;;;;;24.11;48.71;101258.00;5013456;28;20172;-72
2022/08/11 09:15:32;;;;;;;0.07;0.07;;;;;;;24.29;48.78;101270.97;5013518;28;20629;-72
2022/08/11 09:18:04;;;;;;;0.00;0.00;;;;;;;24.44;48.75;101262.72;5013435;28;20173;-72
2022/08/11 09:20:33;;;;;;;0.00;0.00;;;;;;;24.54;49.30;101260.03;5011716;28;20545;-72
2022/08/11 09:28:34;;;;;;;0.10;0.10;;;;;;;24.79;47.41;101249.03;5012653;28;20246;-72
2022/08/11 09:31:01;;;;;;;0.00;0.00;;;;;;;24.82;48.93;101239.88;5013151;28;20763;-72
2022/08/11 09:33:29;;;;;;;0.37;0.37;;;;;;;24.93;48.37;101237.97;5013121;28;20169;-73
2022/08/11 09:35:55;;;;;;;0.00;0.00;;;;;;;25.13;46.70;101241.28;5013031;28;20227;-72
2022/08/11 09:41:10;;;;;;;0.20;0.20;;;;;;;25.32;46.41;101242.19;5005186;28;20189;-72
2022/08/11 09:46:27;;;;;;;0.00;0.00;;;;;;;25.59;45.20;101235.09;5003802;28;20272;-72
2022/08/11 09:48:57;;;;;;;0.00;0.00;;;;;;;25.71;45.49;101237.56;5012254;28;20180;-72
2022/08/11 09:51:24;;;;;;;0.00;0.00;;;;;;;25.89;44.23;101234.00;5012903;28;20161;-72
2022/08/11 09:53:50;;;;;;;0.00;0.00;;;;;;;25.94;44.19;101228.81;5012681;28;20185;-72
2022/08/11 09:59:03;;;;;;;0.10;0.10;;;;;;;25.99;43.93;101225.63;5012626;28;20172;-72
2022/08/11 10:01:33;;;;;;;0.00;0.00;;;;;;;26.08;42.33;101223.25;5012431;28;20179;-71
2022/08/11 10:04:04;;;;;;;0.10;0.10;;;;;;;26.22;41.23;101221.66;5008946;28;20596;-71
2022/08/11 10:09:18;;;;;;;0.00;0.00;;;;;;;26.20;41.39;101207.25;5011687;28;20231;-71
2022/08/11 10:11:45;;;;;;;0.00;0.00;;;;;;;26.34;41.53;101198.84;5011816;28;20181;-71
2022/08/11 10:16:56;;;;;;;0.37;0.37;;;;;;;26.44;40.30;101200.84;5012497;28;20489;-71
2022/08/11 10:19:21;;;;;;;0.00;0.00;;;;;;;26.79;38.80;101200.00;5011843;28;20520;-72
2022/08/11 10:27:25;;;;;;;0.00;0.00;;;;;;;26.94;39.72;101186.75;5011979;28;20192;-72
2022/08/11 10:35:20;;;;;;;0.87;0.80;;;;;;;26.83;38.57;101181.16;5011986;28;20170;-72
2022/08/11 10:37:47;;;;;;;0.10;0.10;;;;;;;26.90;38.79;101180.34;5011593;28;20651;-72
2022/08/11 10:40:14;;;;;;;0.00;0.00;;;;;;;26.98;38.28;101173.50;5011290;28;20175;-72
2022/08/11 10:48:11;;;;;;;0.20;0.20;;;;;;;27.22;37.41;101161.44;5011169;28;20188;-72
2022/08/11 10:58:55;;;;;;;0.30;0.30;;;;;;;27.33;37.66;101163.34;5011158;28;20535;-72
2022/08/11 11:01:23;;;;;;;0.00;0.00;;;;;;;27.13;36.92;101155.44;5011150;28;20181;-72
2022/08/11 11:03:53;;;;;;;0.13;0.13;;;;;;;27.06;37.96;101157.50;5010451;28;20205;-72
2022/08/11 11:06:43;;;;;;;1.50;1.40;;;;;;;27.33;36.91;101154.94;5011232;28;20170;-72
2022/08/11 11:09:31;;;;;;;0.00;0.00;;;;;;;27.18;36.57;101151.41;5008468;28;20186;-72
2022/08/11 11:18:06;;;;;;;0.40;0.40;;;;;;;27.84;36.05;101145.84;5011062;28;20243;-72
2022/08/11 11:20:40;;;;;;;0.00;0.00;;;;;;;27.83;36.46;101145.03;5010751;28;20205;-72
2022/08/11 11:23:11;;;;;;;0.20;0.10;;;;;;;27.58;36.40;101142.38;5009726;28;20238;-71
2022/08/11 11:26:18;;;;;;;0.00;0.00;;;;;;;27.92;35.93;101126.91;5011126;28;20553;-71
2022/08/11 11:28:47;;;;;;;0.00;0.00;;;;;;;27.94;35.59;101130.13;4977135;28;20205;-72
2022/08/11 11:31:33;;;;;;;1.20;1.10;;;;;;;27.94;34.71;101135.72;5011133;28;20524;-72
2022/08/11 11:34:32;;;;;;;0.23;0.23;;;;;;;27.81;34.29;101129.81;5011246;28;20204;-72
2022/08/11 11:37:00;;;;;;;0.10;0.10;;;;;;;28.09;34.34;101138.00;5010639;28;20186;-71
2022/08/11 11:39:28;;;;;;;0.30;0.30;;;;;;;27.66;34.28;101131.13;5010504;28;20188;-72
2022/08/11 11:41:56;;;;;;;0.30;0.30;;;;;;;27.67;33.92;101124.31;5005715;28;20267;-71
2022/08/11 11:44:22;;;;;;;0.07;0.07;;;;;;;27.83;35.26;101127.38;5010769;28;20222;-71
2022/08/11 11:46:49;;;;;;;0.93;0.90;;;;;;;27.78;34.10;101117.41;5010473;28;20271;-72
2022/08/11 11:49:21;;;;;;;0.40;0.30;;;;;;;28.01;34.37;101121.63;5010348;28;20178;-72
2022/08/11 11:51:49;;;;;;;0.20;0.20;;;;;;;28.42;34.17;101119.66;5010634;28;20185;-72
2022/08/11 11:54:15;;;;;;;0.00;0.00;;;;;;;28.13;34.35;101113.47;5010585;28;20625;-71
2022/08/11 11:56:42;;;;;;;0.00;0.00;;;;;;;28.36;34.53;101115.72;5010505;28;20232;-72
2022/08/11 12:01:54;;;;;;;0.10;0.10;;;;;;;28.47;35.23;101112.75;5009388;28;20305;-72
2022/08/11 12:04:21;;;;;;;6.37;5.83;;;;;;;28.32;33.45;101108.50;5010499;28;20182;-72
2022/08/11 12:06:46;;;;;;;0.10;0.10;;;;;;;28.39;34.10;101112.06;5010205;28;20175;-72
2022/08/11 12:09:17;;;;;;;0.30;0.13;;;;;;;28.54;33.94;101114.72;5010410;28;20216;-72
2022/08/11 12:14:28;;;;;;;0.10;0.10;;;;;;;28.32;32.91;101102.88;5010737;28;20548;-71
2022/08/11 12:16:55;;;;;;;1.20;1.20;;;;;;;28.50;34.09;101097.88;5010084;28;20184;-71
2022/08/11 12:19:29;;;;;;;0.30;0.30;;;;;;;28.51;33.59;101099.47;5010047;28;20618;-72
2022/08/11 12:27:26;;;;;;;0.00;0.00;;;;;;;28.22;33.73;101081.28;4991233;28;20675;-72
2022/08/11 12:29:56;;;;;;;0.00;0.00;;;;;;;28.37;33.11;101082.78;4998232;28;20179;-72
2022/08/11 12:32:24;;;;;;;0.63;0.63;;;;;;;28.70;33.07;101081.97;5013450;28;20183;-72
2022/08/11 12:34:50;;;;;;;0.00;0.00;;;;;;;28.85;32.80;101064.91;5014603;28;20614;-72
2022/08/11 12:37:22;;;;;;;0.40;0.40;;;;;;;28.93;33.02;101058.81;5013877;28;20248;-72
2022/08/11 12:45:28;;;;;;;0.03;0.00;;;;;;;29.48;33.28;101046.34;5014150;28;20226;-72
2022/08/11 12:54:05;;;;;;;0.17;0.17;;;;;;;29.17;32.18;101039.16;5014525;28;20248;-72
2022/08/11 13:05:13;;;;;;;0.00;0.00;;;;;;;29.42;32.91;101021.91;4996429;28;20175;-72
2022/08/11 13:07:42;;;;;;;0.30;0.30;;;;;;;29.28;32.36;101018.09;5019686;28;20188;-72
2022/08/11 13:10:09;;;;;;;0.10;0.10;;;;;;;29.21;32.13;101021.00;5013671;28;20172;-72
2022/08/11 13:12:49;;;;;;;1.13;0.87;;;;;;;29.13;32.50;101015.91;5013838;28;20722;-72
2022/08/11 13:15:18;;;;;;;2.90;0.47;;;;;;;29.29;32.91;101016.06;5014201;28;20214;-71
2022/08/11 13:17:47;;;;;;;0.00;0.00;;;;;;;29.20;31.83;101008.16;5012906;28;20656;-72
2022/08/11 13:20:15;;;;;;;0.10;0.10;;;;;;;29.09;31.72;101004.72;5013194;28;20171;-72
2022/08/11 13:22:45;;;;;;;0.00;0.00;;;;;;;29.20;31.48;100990.47;5023336;28;20206;-72
2022/08/11 13:25:14;;;;;;;0.13;0.13;;;;;;;28.94;32.27;100997.72;5016109;28;20173;-72
2022/08/11 13:27:41;;;;;;;0.50;0.50;;;;;;;28.87;31.75;100992.16;5013287;28;20699;-72
2022/08/11 13:32:51;;;;;;;0.50;0.50;;;;;;;29.50;31.61;100989.59;5013270;28;20181;-72
2022/08/11 13:35:18;;;;;;;0.00;0.00;;;;;;;29.55;31.47;100980.69;5011856;28;20181;-72
2022/08/11 13:37:45;;;;;;;0.40;0.40;;;;;;;29.75;32.31;100983.53;5012949;28;20180;-72
2022/08/11 13:40:12;;;;;;;0.20;0.20;;;;;;;29.49;31.96;100977.53;5011998;28;20177;-72
2022/08/11 13:42:42;;;;;;;0.57;0.57;;;;;;;29.19;32.05;100978.41;5013051;28;20397;-72
2022/08/11 13:45:09;;;;;;;0.20;0.20;;;;;;;29.44;32.14;100968.75;5007826;28;20190;-72
2022/08/11 13:47:36;;;;;;;1.17;0.40;;;;;;;29.24;31.90;100969.50;5012695;28;20241;-72
2022/08/11 13:50:04;;;;;;;0.00;0.00;;;;;;;29.49;32.48;100969.09;5021302;28;20211;-72
2022/08/11 13:52:30;;;;;;;0.00;0.00;;;;;;;29.60;31.40;100961.25;5010677;28;20195;-72
2022/08/11 13:54:56;;;;;;;0.00;0.00;;;;;;;29.68;31.57;100969.59;5010345;28;20195;-72
2022/08/11 13:57:23;;;;;;;0.23;0.23;;;;;;;29.55;31.25;100969.41;5012459;28;20211;-72
2022/08/11 14:00:08;;;;;;;0.00;0.00;;;;;;;29.56;31.91;100974.63;5010814;28;20199;-72
2022/08/11 14:02:36;;;;;;;0.00;0.00;;;;;;;29.71;32.77;100963.88;4990776;28;20562;-72
2022/08/11 14:05:09;;;;;;;0.20;0.20;;;;;;;29.43;31.95;100961.53;4992955;28;20675;-71
2022/08/11 14:07:39;;;;;;;0.00;0.00;;;;;;;29.37;31.94;100966.06;5025760;28;20169;-72
2022/08/11 14:10:06;;;;;;;0.00;0.00;;;;;;;29.28;31.91;100963.81;5012084;28;20642;-72
2022/08/11 14:15:26;;;;;;;0.00;0.00;;;;;;;29.47;31.47;100946.19;5014669;28;20184;-72
2022/08/11 14:18:03;;;;;;;0.00;0.00;;;;;;;29.50;33.13;100947.34;5015041;28;20167;-80
2022/08/11 14:22:05;;;;;;;0.00;0.00;;;;;;;30.05;31.78;100941.13;4993137;28;20161;-72
2022/08/11 14:23:24;;;;;;;1.03;0.93;;;;;;;29.86;31.00;100939.84;4993067;28;20587;-72
2022/08/11 14:28:34;;;;;;;0.30;0.30;;;;;;;29.83;31.62;100934.28;5008026;28;20195;-72
2022/08/11 14:31:01;;;;;;;0.00;0.00;;;;;;;29.80;31.94;100943.59;5011991;28;20177;-74
2022/08/11 14:33:29;;;;;;;0.00;0.00;;;;;;;29.45;32.20;100934.53;5011981;28;20188;-74
2022/08/11 14:35:55;;;;;;;0.00;0.00;;;;;;;29.68;31.79;100925.31;5011565;28;20187;-73
2022/08/11 14:38:20;;;;;;;0.00;0.00;;;;;;;29.62;31.16;100927.81;5002420;28;20182;-73
2022/08/11 14:49:00;;;;;;;0.00;0.00;;;;;;;29.60;31.49;100926.66;5010159;28;20177;-74
2022/08/11 14:51:26;;;;;;;0.27;0.27;;;;;;;29.68;30.88;100924.53;5011646;28;20177;-75
2022/08/11 14:56:34;;;;;;;0.20;0.20;;;;;;;30.35;30.40;100925.19;5011841;28;20613;-73
2022/08/11 14:56:39;;;;;;;0.00;0.00;;;;;;;30.31;29.93;100914.00;4991751;28;20178;-73
2022/08/11 14:59:06;;;;;;;0.47;0.47;;;;;;;29.67;30.62;100920.13;4992017;28;20179;-73
2022/08/11 15:04:16;;;;;;;0.10;0.10;;;;;;;30.11;31.21;100907.59;4991866;28;20554;-73
2022/08/11 15:06:42;;;;;;;0.37;0.37;;;;;;;29.75;31.01;100907.47;4991478;28;20183;-74
2022/08/11 15:09:07;;;;;;;0.00;0.00;;;;;;;29.85;31.41;100915.72;4991285;28;20640;-73
2022/08/11 15:17:06;;;;;;;0.00;0.00;;;;;;;29.68;30.56;100907.63;4991976;28;20538;-73
2022/08/11 15:17:08;;;;;;;0.00;0.00;;;;;;;30.48;31.38;100909.19;4991842;28;20173;-73
2022/08/11 15:19:35;;;;;;;0.00;0.00;;;;;;;30.48;29.89;100901.53;4991117;28;20245;-73
2022/08/11 15:24:44;;;;;;;0.20;0.20;;;;;;;29.84;29.61;100887.97;5011275;28;20323;-73
2022/08/11 15:38:22;;;;;;;0.43;0.43;;;;;;;29.87;30.41;100884.28;5010416;28;20179;-74
2022/08/11 15:46:31;;;;;;;0.00;0.00;;;;;;;30.23;29.05;100875.09;5011056;28;20644;-72
2022/08/11 15:49:06;;;;;;;0.00;0.00;;;;;;;30.22;29.10;100871.50;5008836;28;20180;-72
2022/08/11 15:51:39;;;;;;;0.00;0.00;;;;;;;29.95;29.76;100870.88;5010800;28;20170;-73
2022/08/11 15:54:14;;;;;;;0.00;0.00;;;;;;;30.03;29.67;100870.28;5010788;28;20628;-73
2022/08/11 15:56:42;;;;;;;0.00;0.00;;;;;;;30.48;29.16;100869.72;5010473;28;20192;-73
2022/08/11 16:04:43;;;;;;;0.13;0.13;;;;;;;30.28;28.61;100852.06;5012977;28;20239;-73
2022/08/11 16:07:18;;;;;;;0.00;0.00;;;;;;;29.93;28.95;100857.19;5012967;28;20334;-73
2022/08/11 16:09:47;;;;;;;0.30;0.30;;;;;;;29.88;29.21;100855.69;5013628;28;20177;-73
2022/08/11 16:12:19;;;;;;;5.10;0.20;;;;;;;29.96;28.36;100847.09;5003502;28;20185;-73
2022/08/11 16:18:01;;;;;;;0.00;0.00;;;;;;;29.92;28.17;100852.78;5006899;28;20194;-73
2022/08/11 16:20:27;;;;;;;0.00;0.00;;;;;;;30.19;28.66;100853.44;5013830;28;20260;-73
2022/08/11 16:22:58;;;;;;;0.30;0.30;;;;;;;30.48;28.46;100841.50;5014283;28;20214;-73
2022/08/11 16:25:25;;;;;;;0.00;0.00;;;;;;;30.70;27.96;100844.66;5014365;28;20647;-73
2022/08/11 16:28:03;;;;;;;0.00;0.00;;;;;;;30.67;28.19;100840.69;5012438;28;20819;-73
2022/08/11 16:30:30;;;;;;;0.17;0.17;;;;;;;30.01;28.57;100833.28;5013623;28;20165;-73